首页
METAR-TAF:

METAR-TAF

机场 :

哥本哈根凯斯楚普机场

哥本哈根, 丹麦

纬度: 55-37N, 经度: 012-39E, 海拔: 5米

当前天气观测

该预报发布于15分钟前的13:20 UTC
风速5节,风向南转南东,在东转东南之间变化
温度 7°C
湿度 76%
气压 1041 hPa
能见度10公里或以上
多云层高于1700英尺

METAR: EKCH 171320Z 15005KT 120V190 9999 BKN017 07/03 Q1041 NOSIG

时间: 14:35 (13:35 UTC)

预报

该预报发布于2小时和33分钟前的11:02 UTC
预报有效从17日的 12点(UTC)到 18日的 12点(UTC)
风速8节,风向南转南东
能见度10公里或以上
多云层高于2000英尺
成为
从 17日的 18点(UTC)到 17日的 21点(UTC)
风速8节,风向东转东北
短暂存在
从 17日的 21点(UTC)到 18日的 09点(UTC)
能見度: 4000
多云层高于1200英尺
轻雾
成为
从 18日的 01点(UTC)到 18日的 04点(UTC)
风速10节,风向

TAF: EKCH 171102Z 1712/1812 15008KT 9999 BKN020 BECMG 1718/1721 06008KT TEMPO 1721/1809 4000 BR BKN012 BECMG 1801/1804 35010KT

超过4000个机场的气象观测和天气预报(METAR&TAF报告)。

可查询的气象台以黄色和红色小点在地图上表示。

将鼠标移到小点上方,可查看气象台名称。

然后点击查看天气观测和预报。

如需切换地图:点击带黑十字的绿色按钮放大地图;点击带横线的绿色按钮缩小地图;或者点击绿色箭头查看邻近地区的地图。


METAR-TAF: